Terminal Aerodrome Forecast
Issued by NWS Bismarck, ND

Home | Current Version | Previous Version | Graphics & Text | Print | Product List | Glossary On
Versions: 1 2 3 4 5 6 7 8 9 10 11 12 13
000
FTUS43 KBIS 220159 AAA
TAFBIS
TAF AMD
KBIS 220159Z 2202/2224 08004KT P6SM SCT110
     FM220400 11003KT P6SM FEW120
     FM221600 14011KT P6SM SCT090=

USA.gov is the U.S. government's official web portal to all federal, state and local government web resources and services.